LFBG/CNG METAR and TAF weather

Enter ICAO airport designator
Station Type Date Time Source
LFBG METAR 2022/11/26 09:00 UTC NOAA

LFBG 260900Z AUTO 12003KT CAVOK 06/06 Q1030


Station Type Date Time Source
LFBG Decoded METAR 2022/11/26 09:00 UTC NOAA

Cognac, France (LFBG) 45-40N 000-19W 31M
Nov 26, 2022 - 04:00 AM EST / 2022.11.26 0900 UTC
Wind: from the ESE (120 degrees) at 3 MPH (3 KT):0
Visibility: greater than 7 mile(s):0
Temperature: 42 F (6 C)
Dew Point: 42 F (6 C)
Relative Humidity: 100%
Pressure (altimeter): 30.42 in. Hg (1030 hPa)
ob: LFBG 260900Z AUTO 12003KT CAVOK 06/06 Q1030
cycle: 9

Station Type Date Time Source
LFBG TAF 2022/11/25 19:25 UTC NOAA

TAF LFBG 251915Z 2519/2615 CNL

Example: see airport list